Time;durP1;ratioP1;P1;durP2;ratioP2;P2;SDS_P1;SDS_P2;PMS_P1;PMS_P2;Temp;Humidity;BMP_temperature;BMP_pressure;BME280_temperature;BME280_humidity;BME280_pressure;Samples;Min_cycle;Max_cycle;Signal;HPM_P1;HPM_P2
2023/07/08 00:00:27;;;;;;;7.63;4.60;;;23.80;71.60;;;;;;7389586;19;20153;-76
2023/07/08 00:02:53;;;;;;;7.60;5.15;;;23.70;72.40;;;;;;7391632;19;20142;-77
2023/07/08 00:05:21;;;;;;;7.40;5.18;;;23.60;72.80;;;;;;7387386;19;20595;-77
2023/07/08 00:07:47;;;;;;;9.07;5.00;;;23.60;72.80;;;;;;7390129;19;20162;-77
2023/07/08 00:10:25;;;;;;;8.25;4.82;;;23.40;72.80;;;;;;7388956;19;20610;-77
2023/07/08 00:12:53;;;;;;;7.75;4.95;;;23.40;73.60;;;;;;7391751;19;20162;-76
2023/07/08 00:15:24;;;;;;;12.20;5.30;;;23.40;73.40;;;;;;7389288;19;20127;-77
2023/07/08 00:17:50;;;;;;;7.88;5.22;;;23.30;73.80;;;;;;7389756;19;20150;-76
2023/07/08 00:20:41;;;;;;;10.30;5.10;;;23.30;74.00;;;;;;7390603;19;20620;-76
2023/07/08 00:23:09;;;;;;;6.72;4.82;;;23.30;74.50;;;;;;7390132;19;20150;-77
2023/07/08 00:25:35;;;;;;;6.95;4.60;;;23.40;74.70;;;;;;7389371;19;20143;-77
2023/07/08 00:28:01;;;;;;;7.50;5.38;;;23.30;74.50;;;;;;7389746;19;20149;-77
2023/07/08 00:30:30;;;;;;;8.20;4.90;;;23.30;75.10;;;;;;7390605;19;20150;-77
2023/07/08 00:32:57;;;;;;;7.90;5.45;;;23.20;75.30;;;;;;7390757;19;20520;-77
2023/07/08 00:35:35;;;;;;;8.75;5.13;;;23.50;75.20;;;;;;7385021;19;20135;-77
2023/07/08 00:38:02;;;;;;;7.07;4.60;;;23.50;76.00;;;;;;7389596;19;20139;-77
2023/07/08 00:40:32;;;;;;;7.22;4.80;;;23.40;75.30;;;;;;7391139;19;20134;-77
2023/07/08 00:43:05;;;;;;;8.18;4.97;;;23.40;75.70;;;;;;7391397;19;20591;-77
2023/07/08 00:46:23;;;;;;;7.43;5.22;;;23.40;76.20;;;;;;7388873;19;20142;-77
2023/07/08 00:48:51;;;;;;;7.05;5.10;;;23.50;75.90;;;;;;7385452;19;20347;-77
2023/07/08 00:51:19;;;;;;;8.38;5.28;;;23.50;76.80;;;;;;7389668;19;20210;-77
2023/07/08 00:53:45;;;;;;;6.38;4.75;;;23.30;75.20;;;;;;7389009;19;20151;-77
2023/07/08 00:56:39;;;;;;;7.28;4.85;;;23.30;76.00;;;;;;7386511;19;20135;-76
2023/07/08 00:59:29;;;;;;;6.65;4.63;;;23.30;75.00;;;;;;7391099;19;20258;-76
2023/07/08 01:01:56;;;;;;;6.75;4.75;;;23.40;75.00;;;;;;7389570;19;20138;-77
2023/07/08 01:04:53;;;;;;;8.15;4.80;;;23.30;75.40;;;;;;7388962;19;20245;-77
2023/07/08 01:07:21;;;;;;;10.85;4.68;;;23.30;76.20;;;;;;7386104;19;20541;-77
2023/07/08 01:09:51;;;;;;;7.13;4.80;;;23.40;76.70;;;;;;7390408;19;20557;-76
2023/07/08 01:12:23;;;;;;;9.90;4.95;;;23.40;76.30;;;;;;7386704;19;20134;-77
2023/07/08 01:14:53;;;;;;;8.10;5.63;;;23.40;77.40;;;;;;7381167;19;20170;-77
2023/07/08 01:17:20;;;;;;;7.78;5.00;;;23.30;76.40;;;;;;7389124;19;20234;-78
2023/07/08 01:19:46;;;;;;;7.03;5.30;;;23.30;77.50;;;;;;7387259;19;20139;-76
2023/07/08 01:22:12;;;;;;;7.90;5.32;;;23.30;77.30;;;;;;7388540;19;20127;-77
2023/07/08 01:24:44;;;;;;;7.60;5.43;;;23.30;77.20;;;;;;7387071;19;20159;-77
2023/07/08 01:27:14;;;;;;;8.30;5.40;;;23.40;77.60;;;;;;7388507;19;20146;-77
2023/07/08 01:29:41;;;;;;;8.68;5.35;;;23.40;77.20;;;;;;7384191;19;20159;-77
2023/07/08 01:32:13;;;;;;;7.38;5.20;;;23.30;77.80;;;;;;7389575;19;20135;-76
2023/07/08 01:34:39;;;;;;;6.63;4.53;;;23.10;77.70;;;;;;7386868;19;20296;-76
2023/07/08 01:37:09;;;;;;;7.15;4.88;;;23.00;76.80;;;;;;7389743;19;20477;-77
2023/07/08 01:39:34;;;;;;;7.43;5.22;;;22.90;77.80;;;;;;7388064;19;20130;-77
2023/07/08 01:42:01;;;;;;;7.65;4.82;;;23.10;78.50;;;;;;7388503;19;20719;-77
2023/07/08 01:44:32;;;;;;;6.95;4.78;;;23.10;77.70;;;;;;7389588;19;20142;-76
2023/07/08 01:47:04;;;;;;;7.65;5.28;;;23.10;78.40;;;;;;7385399;19;20178;-77
2023/07/08 01:49:32;;;;;;;9.30;5.35;;;23.30;77.80;;;;;;7388693;19;20138;-77
2023/07/08 01:51:59;;;;;;;8.40;4.40;;;23.30;77.30;;;;;;7389996;19;20694;-76
2023/07/08 01:54:24;;;;;;;6.70;5.07;;;23.30;78.40;;;;;;7388339;19;20127;-76
2023/07/08 01:56:56;;;;;;;7.93;4.70;;;23.20;78.70;;;;;;7380979;19;20201;-76
2023/07/08 01:59:21;;;;;;;8.63;5.10;;;22.90;79.70;;;;;;7389104;19;20150;-77
2023/07/08 02:01:49;;;;;;;8.10;4.75;;;22.70;80.30;;;;;;7387211;19;20530;-77
2023/07/08 02:04:15;;;;;;;7.55;4.57;;;22.60;81.30;;;;;;7387623;19;20134;-78
2023/07/08 02:06:42;;;;;;;8.45;4.93;;;22.60;81.40;;;;;;7386995;19;20579;-76
2023/07/08 02:09:08;;;;;;;6.80;4.38;;;22.60;81.80;;;;;;7386318;19;20194;-76
2023/07/08 02:11:33;;;;;;;7.53;4.13;;;22.80;81.50;;;;;;7386672;19;21466;-76
2023/07/08 02:14:00;;;;;;;5.97;4.53;;;23.00;80.60;;;;;;7387985;19;20247;-77
2023/07/08 02:16:26;;;;;;;5.80;4.47;;;22.90;80.20;;;;;;7386084;19;20647;-77
2023/07/08 02:18:52;;;;;;;7.38;4.90;;;23.00;79.60;;;;;;7384600;19;20138;-76
2023/07/08 02:21:17;;;;;;;6.80;4.75;;;23.10;79.50;;;;;;7386413;19;20199;-77
2023/07/08 02:23:50;;;;;;;6.50;4.40;;;23.10;79.00;;;;;;7387754;19;20210;-77
2023/07/08 02:26:16;;;;;;;6.13;4.30;;;23.10;78.90;;;;;;7386445;19;20154;-77
2023/07/08 02:28:42;;;;;;;7.75;4.32;;;22.70;78.90;;;;;;7388450;19;20594;-76
2023/07/08 02:31:07;;;;;;;6.68;4.75;;;22.40;79.40;;;;;;7387468;19;20262;-77
2023/07/08 02:33:33;;;;;;;6.13;4.13;;;22.50;80.20;;;;;;7387337;19;20466;-78
2023/07/08 02:36:00;;;;;;;6.57;4.25;;;22.50;80.60;;;;;;7381981;19;20156;-77
2023/07/08 02:38:26;;;;;;;6.43;4.70;;;22.40;79.70;;;;;;7386862;19;20580;-78
2023/07/08 02:40:52;;;;;;;6.05;4.50;;;22.70;79.90;;;;;;7386979;19;20137;-76
2023/07/08 02:43:18;;;;;;;6.05;4.25;;;22.80;79.20;;;;;;7384791;19;20118;-77
2023/07/08 02:45:43;;;;;;;5.55;4.20;;;22.50;80.70;;;;;;7385308;19;20334;-76
2023/07/08 02:48:09;;;;;;;6.63;4.22;;;22.50;80.50;;;;;;7384545;19;20632;-76
2023/07/08 02:50:35;;;;;;;5.82;4.35;;;22.70;81.10;;;;;;7386965;19;20130;-75
2023/07/08 02:53:00;;;;;;;6.57;4.72;;;22.80;80.60;;;;;;7384379;19;20127;-76
2023/07/08 02:55:26;;;;;;;7.60;4.30;;;22.60;80.80;;;;;;7383752;19;20163;-76
2023/07/08 02:57:52;;;;;;;8.27;4.68;;;22.60;81.50;;;;;;7384893;19;20135;-76
2023/07/08 03:00:18;;;;;;;5.47;4.07;;;22.80;81.10;;;;;;7386407;19;20135;-76
2023/07/08 03:02:44;;;;;;;6.95;4.47;;;22.90;80.20;;;;;;7386473;19;20131;-76
2023/07/08 03:05:10;;;;;;;7.13;4.35;;;23.00;80.20;;;;;;7386046;19;20197;-76
2023/07/08 03:07:36;;;;;;;6.30;4.13;;;23.00;79.90;;;;;;7384903;19;20147;-76
2023/07/08 03:10:02;;;;;;;6.55;4.50;;;23.00;79.70;;;;;;7386453;19;20138;-76
2023/07/08 03:12:27;;;;;;;6.40;4.22;;;23.00;80.10;;;;;;7386015;19;20153;-75
2023/07/08 03:14:53;;;;;;;6.20;4.10;;;23.00;80.10;;;;;;7383102;19;20159;-75
2023/07/08 03:17:19;;;;;;;5.95;3.75;;;23.00;79.60;;;;;;7384255;19;20150;-76
2023/07/08 03:19:45;;;;;;;6.22;4.30;;;22.90;78.70;;;;;;7383729;19;20150;-76
2023/07/08 03:22:10;;;;;;;6.10;3.95;;;22.80;79.80;;;;;;7384976;19;20134;-76
2023/07/08 03:24:36;;;;;;;8.38;4.53;;;22.90;79.40;;;;;;7385217;19;20145;-76
2023/07/08 03:27:04;;;;;;;6.28;4.30;;;22.90;79.00;;;;;;7385071;19;20512;-76
2023/07/08 03:29:31;;;;;;;6.57;4.05;;;22.90;78.90;;;;;;7383676;19;20145;-76
2023/07/08 03:31:56;;;;;;;7.75;4.03;;;22.90;77.70;;;;;;7385494;19;20508;-76
2023/07/08 03:34:22;;;;;;;6.03;4.20;;;22.60;78.80;;;;;;7383630;19;20146;-76
2023/07/08 03:36:50;;;;;;;7.40;4.75;;;22.70;79.40;;;;;;7386220;19;20154;-77
2023/07/08 03:39:18;;;;;;;7.25;4.70;;;22.90;78.30;;;;;;7386498;19;20119;-77
2023/07/08 03:41:44;;;;;;;6.78;4.55;;;22.90;79.10;;;;;;7384032;19;20893;-76
2023/07/08 03:44:10;;;;;;;7.95;4.53;;;22.90;80.20;;;;;;7385137;19;20139;-77
2023/07/08 03:46:36;;;;;;;7.25;5.07;;;22.90;81.00;;;;;;7382145;19;20154;-76
2023/07/08 03:49:02;;;;;;;6.95;4.65;;;22.70;82.00;;;;;;7384796;19;20334;-77
2023/07/08 03:51:32;;;;;;;6.88;4.97;;;22.50;83.20;;;;;;7386774;19;20483;-77
2023/07/08 03:53:58;;;;;;;10.60;4.50;;;22.60;84.30;;;;;;7386514;19;20610;-77
2023/07/08 03:56:24;;;;;;;6.88;4.60;;;22.60;84.50;;;;;;7382783;19;20210;-77
2023/07/08 03:58:51;;;;;;;8.00;5.05;;;22.70;83.60;;;;;;7382201;19;20167;-77
2023/07/08 04:01:18;;;;;;;7.68;5.30;;;22.70;83.50;;;;;;7383116;19;20135;-77
2023/07/08 04:03:44;;;;;;;8.20;5.10;;;22.70;85.50;;;;;;7382882;19;20131;-77
2023/07/08 04:06:10;;;;;;;6.93;4.90;;;22.60;87.40;;;;;;7382055;19;20624;-76
2023/07/08 04:08:36;;;;;;;8.70;5.13;;;22.50;89.00;;;;;;7382967;19;20131;-76
2023/07/08 04:11:02;;;;;;;9.07;4.95;;;22.40;89.70;;;;;;7383585;19;20157;-76
2023/07/08 04:13:27;;;;;;;9.15;5.53;;;22.40;90.30;;;;;;7382935;19;20149;-77
2023/07/08 04:15:59;;;;;;;6.47;4.78;;;22.50;90.50;;;;;;7379440;19;20624;-76
2023/07/08 04:18:25;;;;;;;7.78;4.70;;;22.50;90.70;;;;;;7382017;19;20203;-77
2023/07/08 04:20:52;;;;;;;9.02;5.05;;;22.40;91.00;;;;;;7385129;19;20504;-76
2023/07/08 04:23:22;;;;;;;7.97;4.82;;;22.30;91.40;;;;;;7381909;19;20151;-77
2023/07/08 04:25:55;;;;;;;8.93;4.75;;;22.30;91.50;;;;;;7383616;19;20217;-76
2023/07/08 04:28:21;;;;;;;6.20;4.25;;;22.30;91.60;;;;;;7383488;19;20150;-77
2023/07/08 04:30:48;;;;;;;9.07;5.80;;;22.40;91.30;;;;;;7381518;19;20155;-77
2023/07/08 04:33:14;;;;;;;7.85;5.32;;;22.60;91.00;;;;;;7382970;19;20157;-77
2023/07/08 04:35:41;;;;;;;9.38;4.90;;;22.60;91.40;;;;;;7381817;19;20138;-79
2023/07/08 04:38:21;;;;;;;7.80;5.25;;;22.60;91.40;;;;;;7385256;19;20146;-78
2023/07/08 04:40:48;;;;;;;9.85;5.15;;;22.60;91.50;;;;;;7382842;19;20169;-77
2023/07/08 04:43:14;;;;;;;7.10;4.90;;;22.70;91.40;;;;;;7390468;19;20209;-77
2023/07/08 04:45:42;;;;;;;7.03;5.00;;;22.70;91.50;;;;;;7389651;19;20160;-77
2023/07/08 04:48:13;;;;;;;8.73;5.03;;;22.80;91.40;;;;;;7391914;19;20137;-78
2023/07/08 04:50:41;;;;;;;8.10;4.97;;;22.90;91.60;;;;;;7391319;19;20595;-77
2023/07/08 04:53:07;;;;;;;8.50;4.93;;;22.90;91.80;;;;;;7392294;19;20145;-77
2023/07/08 04:55:34;;;;;;;7.78;4.72;;;23.00;91.60;;;;;;7387896;19;20135;-77
2023/07/08 04:58:01;;;;;;;7.45;4.53;;;23.00;91.10;;;;;;7391539;19;20202;-77
2023/07/08 05:00:28;;;;;;;7.05;4.88;;;23.10;90.40;;;;;;7390010;19;20159;-77
2023/07/08 05:02:54;;;;;;;6.20;4.65;;;23.20;90.40;;;;;;7390113;19;20131;-78
2023/07/08 05:05:20;;;;;;;6.43;4.82;;;23.20;90.40;;;;;;7390159;19;20206;-77
2023/07/08 05:07:46;;;;;;;6.65;4.90;;;23.10;91.00;;;;;;7390422;19;20890;-76
2023/07/08 05:10:12;;;;;;;6.63;4.65;;;23.10;90.20;;;;;;7388241;19;20138;-77
2023/07/08 05:12:38;;;;;;;8.65;5.38;;;23.10;90.10;;;;;;7386640;19;20194;-78
2023/07/08 05:15:04;;;;;;;7.70;4.72;;;23.00;90.70;;;;;;7387169;19;20150;-79
2023/07/08 05:17:30;;;;;;;7.45;4.63;;;23.10;90.40;;;;;;7389334;19;20138;-79
2023/07/08 05:20:00;;;;;;;6.28;4.60;;;23.20;90.00;;;;;;7387439;19;20154;-78
2023/07/08 05:22:26;;;;;;;6.32;4.20;;;23.10;90.20;;;;;;7389073;19;20130;-78
2023/07/08 05:24:55;;;;;;;5.78;4.47;;;23.10;90.20;;;;;;7389510;19;20455;-78
2023/07/08 05:27:22;;;;;;;7.15;5.03;;;23.20;89.10;;;;;;7387430;19;20583;-78
2023/07/08 05:29:48;;;;;;;7.55;4.78;;;23.10;89.50;;;;;;7387692;19;20269;-78
2023/07/08 05:32:14;;;;;;;7.25;4.78;;;23.30;89.60;;;;;;7387566;19;20163;-78
2023/07/08 05:34:40;;;;;;;7.30;4.28;;;23.50;88.50;;;;;;7387077;19;20652;-78
2023/07/08 05:37:06;;;;;;;5.97;4.53;;;23.50;87.50;;;;;;7388116;19;20135;-79
2023/07/08 05:39:32;;;;;;;7.07;4.53;;;23.70;87.40;;;;;;7388415;19;20146;-79
2023/07/08 05:41:57;;;;;;;7.45;5.00;;;23.70;86.90;;;;;;7390275;19;20131;-78
2023/07/08 05:44:23;;;;;;;7.18;4.35;;;23.70;88.10;;;;;;7386848;19;20149;-79
2023/07/08 05:46:50;;;;;;;7.60;5.13;;;23.80;88.00;;;;;;7385575;19;20159;-79
2023/07/08 05:49:16;;;;;;;5.60;4.10;;;23.80;88.00;;;;;;7390168;19;20138;-79
2023/07/08 05:51:44;;;;;;;6.95;4.82;;;23.80;88.40;;;;;;7388307;19;20134;-78
2023/07/08 05:54:10;;;;;;;6.10;4.10;;;24.00;87.90;;;;;;7388625;19;20252;-79
2023/07/08 05:56:36;;;;;;;7.00;4.70;;;24.00;88.30;;;;;;7388688;19;20138;-79
2023/07/08 05:59:03;;;;;;;7.32;4.90;;;24.10;88.40;;;;;;7388287;19;20137;-79
2023/07/08 06:01:29;;;;;;;6.10;4.22;;;24.10;88.40;;;;;;7385581;19;20168;-79
2023/07/08 06:03:58;;;;;;;7.45;4.63;;;24.20;88.30;;;;;;7387041;19;20142;-78
2023/07/08 06:06:24;;;;;;;6.20;4.63;;;24.20;88.30;;;;;;7385115;19;20490;-79
2023/07/08 06:08:53;;;;;;;6.63;4.38;;;24.20;88.10;;;;;;7388166;19;20332;-80
2023/07/08 06:11:19;;;;;;;6.07;4.32;;;24.30;88.90;;;;;;7385714;19;20515;-79
2023/07/08 06:13:45;;;;;;;6.35;4.60;;;24.40;87.80;;;;;;7387852;19;20161;-79
2023/07/08 06:16:11;;;;;;;7.70;4.78;;;24.30;89.20;;;;;;7384037;19;20167;-79
2023/07/08 06:18:36;;;;;;;6.70;4.30;;;24.60;87.00;;;;;;7389011;19;20653;-79
2023/07/08 06:21:02;;;;;;;7.38;4.30;;;25.80;84.30;;;;;;7387806;19;20148;-78
2023/07/08 06:23:29;;;;;;;6.97;5.07;;;26.60;80.50;;;;;;7387949;19;20131;-80
2023/07/08 06:25:55;;;;;;;7.70;4.82;;;27.90;78.50;;;;;;7385277;19;20509;-79
2023/07/08 06:28:21;;;;;;;7.38;4.53;;;29.70;75.00;;;;;;7386821;19;20165;-78
2023/07/08 06:30:47;;;;;;;6.78;4.75;;;31.70;70.00;;;;;;7387187;19;20622;-79
2023/07/08 06:33:13;;;;;;;8.40;4.88;;;33.40;65.90;;;;;;7386824;19;20142;-79
2023/07/08 06:35:39;;;;;;;5.88;4.50;;;31.50;66.60;;;;;;7380799;19;20131;-77
2023/07/08 06:38:06;;;;;;;6.95;4.68;;;31.10;67.60;;;;;;7386793;19;20167;-78
2023/07/08 06:40:32;;;;;;;6.22;4.50;;;30.90;68.20;;;;;;7389352;19;20151;-78
2023/07/08 06:42:58;;;;;;;6.72;4.43;;;30.80;67.10;;;;;;7387210;19;20134;-76
2023/07/08 06:45:24;;;;;;;6.05;4.38;;;29.70;69.30;;;;;;7386480;19;20156;-78
2023/07/08 06:47:50;;;;;;;7.82;4.22;;;28.20;71.60;;;;;;7380411;19;20174;-77
2023/07/08 06:50:16;;;;;;;7.65;4.55;;;27.70;73.10;;;;;;7387814;19;20151;-77
2023/07/08 06:52:42;;;;;;;6.85;4.82;;;28.60;73.80;;;;;;7386831;19;20233;-77
2023/07/08 06:55:09;;;;;;;6.18;3.92;;;30.50;69.30;;;;;;7386986;19;20157;-77
2023/07/08 06:57:41;;;;;;;7.05;4.50;;;30.80;68.80;;;;;;7384162;19;20581;-78
2023/07/08 07:00:09;;;;;;;7.28;3.85;;;31.00;68.90;;;;;;7386610;19;20154;-78
2023/07/08 07:02:34;;;;;;;5.20;3.97;;;30.60;68.90;;;;;;7386956;19;20635;-78
2023/07/08 07:05:01;;;;;;;6.18;4.07;;;30.10;69.80;;;;;;7383867;19;20162;-79
2023/07/08 07:07:27;;;;;;;7.78;3.88;;;29.00;71.50;;;;;;7386518;19;20143;-77
2023/07/08 07:09:54;;;;;;;5.72;3.92;;;28.60;72.80;;;;;;7383763;19;20249;-77
2023/07/08 07:12:19;;;;;;;6.60;3.65;;;27.60;75.30;;;;;;7386457;19;20202;-77
2023/07/08 07:14:45;;;;;;;5.43;3.95;;;27.10;77.10;;;;;;7387405;19;20218;-79
2023/07/08 07:17:11;;;;;;;7.53;4.32;;;26.70;78.90;;;;;;7388153;19;20594;-77
2023/07/08 07:19:37;;;;;;;4.97;3.17;;;26.50;79.90;;;;;;7385513;19;20134;-77
2023/07/08 07:22:02;;;;;;;4.72;3.47;;;26.30;80.90;;;;;;7386726;19;20215;-77
2023/07/08 07:24:28;;;;;;;5.30;3.80;;;26.20;81.90;;;;;;7386691;19;20146;-78
2023/07/08 07:26:54;;;;;;;6.35;2.90;;;26.20;82.50;;;;;;7383261;19;20470;-76
2023/07/08 07:29:22;;;;;;;4.07;2.90;;;26.20;83.20;;;;;;7384752;19;20478;-78
2023/07/08 07:31:48;;;;;;;5.22;3.35;;;26.10;83.40;;;;;;7383983;19;20143;-75
2023/07/08 07:34:14;;;;;;;4.05;3.10;;;26.10;84.00;;;;;;7382460;19;20158;-76
2023/07/08 07:36:40;;;;;;;5.55;3.25;;;26.10;84.30;;;;;;7383282;19;20162;-76
2023/07/08 07:39:06;;;;;;;6.35;3.50;;;26.10;84.90;;;;;;7386212;19;20150;-76
2023/07/08 07:41:31;;;;;;;3.38;3.08;;;26.10;85.10;;;;;;7385321;19;20175;-77
2023/07/08 07:43:57;;;;;;;6.30;3.13;;;26.20;85.50;;;;;;7387913;19;20138;-76
2023/07/08 07:46:23;;;;;;;4.32;3.00;;;26.30;85.50;;;;;;7379173;19;20177;-76
2023/07/08 07:48:49;;;;;;;9.30;6.50;;;26.30;85.60;;;;;;7383599;19;20159;-76
2023/07/08 07:51:15;;;;;;;8.43;6.10;;;26.30;86.30;;;;;;7384854;19;20135;-80
2023/07/08 07:53:41;;;;;;;5.68;4.18;;;26.40;86.70;;;;;;7386479;19;20169;-78
2023/07/08 07:56:07;;;;;;;13.07;9.02;;;26.40;86.40;;;;;;7381437;19;20163;-77
2023/07/08 07:58:34;;;;;;;5.90;3.78;;;26.40;86.40;;;;;;7386308;19;20155;-77
2023/07/08 08:01:00;;;;;;;5.00;3.13;;;26.60;86.50;;;;;;7383892;19;20567;-80
2023/07/08 08:03:25;;;;;;;5.68;3.63;;;27.50;86.40;;;;;;7384845;19;20154;-78
2023/07/08 08:05:51;;;;;;;5.22;3.28;;;29.00;81.90;;;;;;7385182;19;20221;-78
2023/07/08 08:08:19;;;;;;;4.38;2.58;;;30.20;77.70;;;;;;7386769;19;20529;-78
2023/07/08 08:10:44;;;;;;;6.05;3.20;;;30.50;77.20;;;;;;7385145;19;20198;-77
2023/07/08 08:13:11;;;;;;;3.95;3.03;;;31.30;74.80;;;;;;7384464;19;20143;-77
2023/07/08 08:15:37;;;;;;;5.25;2.97;;;31.80;72.70;;;;;;7383077;19;20148;-76
2023/07/08 08:18:03;;;;;;;5.90;3.45;;;32.00;73.10;;;;;;7392304;19;20789;-76
2023/07/08 08:20:29;;;;;;;5.43;2.97;;;32.10;72.90;;;;;;7393715;19;20881;-76
2023/07/08 08:22:56;;;;;;;4.88;3.33;;;31.90;71.40;;;;;;7390908;19;20168;-78
2023/07/08 08:25:24;;;;;;;4.10;2.90;;;31.40;72.90;;;;;;7389912;19;20185;-76
2023/07/08 08:27:51;;;;;;;4.20;2.60;;;31.40;73.10;;;;;;7389442;19;20162;-75
2023/07/08 08:30:17;;;;;;;6.00;2.75;;;31.30;73.70;;;;;;7391986;19;20590;-75
2023/07/08 08:32:43;;;;;;;4.20;2.33;;;31.60;71.80;;;;;;7389564;19;20560;-76
2023/07/08 08:35:09;;;;;;;3.97;2.70;;;32.00;71.00;;;;;;7393249;19;20130;-75
2023/07/08 08:37:34;;;;;;;3.90;2.45;;;32.30;70.40;;;;;;7389770;19;20594;-75
2023/07/08 08:40:00;;;;;;;4.22;2.88;;;32.70;69.50;;;;;;7390694;19;20190;-76
2023/07/08 08:42:34;;;;;;;3.97;2.67;;;33.00;68.50;;;;;;7390315;19;20138;-75
2023/07/08 08:45:13;;;;;;;4.85;2.17;;;33.10;69.10;;;;;;7391017;19;20157;-77
2023/07/08 08:47:42;;;;;;;3.13;1.90;;;32.90;67.00;;;;;;7387305;19;20146;-75
2023/07/08 08:50:30;;;;;;;3.35;2.45;;;32.90;67.40;;;;;;7390272;19;20171;-75
2023/07/08 08:52:58;;;;;;;3.45;2.25;;;32.80;68.40;;;;;;7390243;19;20131;-75
2023/07/08 08:55:25;;;;;;;7.20;2.30;;;32.30;67.30;;;;;;7387837;19;20143;-76
2023/07/08 08:58:06;;;;;;;59.35;10.20;;;31.60;68.10;;;;;;7387880;19;20154;-76
2023/07/08 09:00:54;;;;;;;21.02;4.00;;;30.90;69.80;;;;;;7390863;19;20480;-75
2023/07/08 09:03:37;;;;;;;5.20;2.55;;;30.60;70.80;;;;;;7389341;19;20157;-76
2023/07/08 09:06:14;;;;;;;4.32;2.45;;;30.50;70.80;;;;;;7389584;19;20140;-76
2023/07/08 09:08:46;;;;;;;6.35;2.65;;;30.50;70.90;;;;;;7388349;19;20150;-75
2023/07/08 09:11:50;;;;;;;4.43;2.30;;;30.50;71.60;;;;;;7380914;19;20230;-77
2023/07/08 09:14:19;;;;;;;5.72;2.63;;;30.70;72.60;;;;;;7385772;19;20146;-78
2023/07/08 09:17:12;;;;;;;7.15;2.45;;;31.10;70.90;;;;;;7387065;19;20185;-77
2023/07/08 09:20:25;;;;;;;4.80;2.22;;;31.30;70.70;;;;;;7391200;19;20142;-76
2023/07/08 09:22:58;;;;;;;5.20;1.83;;;31.40;69.80;;;;;;7388405;19;20157;-76
2023/07/08 09:25:35;;;;;;;6.00;4.50;;;31.20;69.80;;;;;;7390435;19;20229;-77
2023/07/08 09:28:01;;;;;;;3.78;1.70;;;31.20;70.10;;;;;;7388786;19;20242;-76
2023/07/08 09:30:31;;;;;;;2.85;2.00;;;31.50;69.90;;;;;;7389519;19;20202;-78
2023/07/08 09:32:57;;;;;;;8.13;4.80;;;31.60;67.90;;;;;;7385601;19;20242;-79
2023/07/08 09:35:26;;;;;;;8.00;4.50;;;31.50;68.90;;;;;;7385611;19;20139;-78
2023/07/08 09:37:53;;;;;;;4.75;2.58;;;31.70;68.60;;;;;;7389578;19;20150;-77
2023/07/08 09:40:28;;;;;;;4.00;3.08;;;31.50;69.40;;;;;;7388615;19;20170;-78
2023/07/08 09:43:15;;;;;;;3.78;3.20;;;31.70;69.50;;;;;;7390326;19;20142;-78
2023/07/08 09:45:45;;;;;;;2.97;2.35;;;31.90;69.10;;;;;;7387737;19;20154;-77
2023/07/08 09:48:24;;;;;;;4.20;3.05;;;31.90;68.30;;;;;;7385475;19;20165;-76
2023/07/08 09:50:53;;;;;;;4.07;2.13;;;31.60;68.40;;;;;;7387538;19;20162;-77
2023/07/08 09:53:19;;;;;;;4.32;2.70;;;31.30;68.30;;;;;;7388559;19;20159;-79
2023/07/08 09:55:46;;;;;;;6.70;4.03;;;31.20;69.90;;;;;;7385093;19;20739;-77
2023/07/08 09:58:21;;;;;;;4.10;2.47;;;31.00;69.50;;;;;;7388447;19;20157;-77
2023/07/08 10:00:53;;;;;;;3.97;2.38;;;30.90;70.20;;;;;;7386724;19;20614;-76
2023/07/08 10:03:25;;;;;;;3.05;2.35;;;30.80;70.40;;;;;;7387728;19;20159;-76
2023/07/08 10:05:57;;;;;;;3.40;2.30;;;31.10;70.90;;;;;;7387452;19;20480;-78
2023/07/08 10:08:24;;;;;;;4.43;3.53;;;31.30;68.50;;;;;;7388387;19;20153;-78
2023/07/08 10:11:01;;;;;;;6.88;3.10;;;31.30;68.30;;;;;;7388181;19;20152;-76
2023/07/08 10:13:36;;;;;;;3.60;1.80;;;31.40;67.90;;;;;;7387108;19;20131;-77
2023/07/08 10:16:22;;;;;;;4.25;2.03;;;31.40;67.70;;;;;;7383489;19;20589;-77
2023/07/08 10:18:48;;;;;;;4.40;2.88;;;31.00;67.80;;;;;;7387020;19;20150;-75
2023/07/08 10:21:48;;;;;;;5.10;2.70;;;30.90;69.10;;;;;;7387679;19;20158;-76
2023/07/08 10:24:20;;;;;;;3.40;2.47;;;30.50;70.10;;;;;;7386595;19;20169;-75
2023/07/08 10:26:57;;;;;;;6.85;2.80;;;30.40;71.50;;;;;;7389370;19;20146;-75
2023/07/08 10:29:41;;;;;;;4.63;2.70;;;30.10;71.90;;;;;;7387643;19;20150;-76
2023/07/08 10:32:19;;;;;;;4.43;3.08;;;29.90;72.50;;;;;;7387798;19;20201;-76
2023/07/08 10:34:54;;;;;;;4.65;3.28;;;29.90;73.30;;;;;;7385491;19;20158;-75
2023/07/08 10:37:33;;;;;;;2.97;2.45;;;30.00;74.50;;;;;;7384112;19;20492;-76
2023/07/08 10:40:17;;;;;;;3.63;2.55;;;30.30;73.20;;;;;;7384393;19;20587;-76
2023/07/08 10:43:15;;;;;;;4.88;3.13;;;30.50;73.30;;;;;;7386858;19;20142;-74
2023/07/08 10:45:49;;;;;;;4.68;2.58;;;30.70;73.10;;;;;;7374094;19;20165;-74
2023/07/08 10:48:51;;;;;;;3.85;2.38;;;30.80;72.60;;;;;;7381006;19;20648;-75
2023/07/08 10:51:45;;;;;;;3.42;2.17;;;30.80;72.60;;;;;;7382632;19;20144;-74
2023/07/08 10:54:34;;;;;;;4.72;2.65;;;30.80;72.00;;;;;;7388552;19;20130;-75
2023/07/08 10:57:11;;;;;;;2.65;2.08;;;30.80;71.60;;;;;;7388212;19;20134;-74
2023/07/08 11:00:00;;;;;;;5.00;2.90;;;30.80;70.90;;;;;;7386734;19;20146;-74
2023/07/08 11:02:53;;;;;;;7.55;4.35;;;30.70;71.70;;;;;;7385821;19;20934;-74
2023/07/08 11:05:40;;;;;;;5.53;3.20;;;30.60;71.70;;;;;;7387576;19;20167;-75
2023/07/08 11:08:42;;;;;;;3.17;2.63;;;30.80;71.40;;;;;;7385873;19;20141;-76
2023/07/08 11:11:40;;;;;;;3.38;2.50;;;30.80;71.50;;;;;;7385481;19;20133;-76
2023/07/08 11:14:08;;;;;;;3.42;2.47;;;30.70;71.80;;;;;;7385803;19;20166;-76
2023/07/08 11:16:40;;;;;;;4.68;2.20;;;30.80;71.70;;;;;;7387144;19;20500;-76
2023/07/08 11:19:36;;;;;;;3.85;2.65;;;30.80;71.70;;;;;;7387456;19;20138;-77
2023/07/08 11:22:11;;;;;;;3.05;2.10;;;30.70;71.80;;;;;;7384438;19;20153;-76
2023/07/08 11:24:48;;;;;;;4.80;2.28;;;30.60;72.00;;;;;;7384443;19;20146;-76
2023/07/08 11:27:18;;;;;;;2.40;1.92;;;30.60;71.50;;;;;;7383518;19;20884;-76
2023/07/08 11:30:05;;;;;;;2.90;1.90;;;30.60;71.40;;;;;;7384761;19;20127;-77
2023/07/08 11:32:33;;;;;;;2.80;2.10;;;30.50;71.00;;;;;;7386154;19;20154;-76
2023/07/08 11:35:04;;;;;;;3.20;2.10;;;30.40;72.30;;;;;;7383744;19;20453;-76
2023/07/08 11:37:31;;;;;;;3.50;2.15;;;30.40;72.00;;;;;;7383875;19;20599;-77
2023/07/08 11:40:23;;;;;;;6.75;2.33;;;30.50;71.30;;;;;;7386061;19;20142;-76
2023/07/08 11:43:03;;;;;;;3.20;2.00;;;30.60;71.50;;;;;;7383311;19;20146;-76
2023/07/08 11:45:38;;;;;;;3.08;2.17;;;30.70;70.80;;;;;;7383658;19;20233;-76
2023/07/08 11:48:18;;;;;;;2.35;1.77;;;30.70;71.40;;;;;;7386015;19;20155;-76
2023/07/08 11:50:47;;;;;;;2.85;1.95;;;30.60;71.20;;;;;;7387457;19;20145;-76
2023/07/08 11:53:34;;;;;;;2.53;1.70;;;30.70;70.90;;;;;;7390981;19;20160;-77
2023/07/08 11:56:04;;;;;;;3.33;2.33;;;30.70;70.70;;;;;;7391231;19;20145;-77
2023/07/08 11:58:49;;;;;;;3.55;2.13;;;30.40;71.30;;;;;;7391383;19;20238;-77
2023/07/08 12:01:20;;;;;;;4.28;2.25;;;30.40;71.80;;;;;;7391506;19;20610;-76
2023/07/08 12:03:50;;;;;;;4.13;2.20;;;30.50;71.20;;;;;;7391937;19;20130;-76
2023/07/08 12:06:30;;;;;;;2.78;1.95;;;30.50;71.30;;;;;;7389535;19;20495;-75
2023/07/08 12:08:58;;;;;;;5.22;2.08;;;30.50;71.20;;;;;;7391154;19;20617;-75
2023/07/08 12:11:33;;;;;;;2.92;2.20;;;30.50;71.20;;;;;;7388214;19;20139;-76
2023/07/08 12:14:00;;;;;;;2.60;1.67;;;30.50;72.00;;;;;;7391314;19;20135;-75
2023/07/08 12:16:28;;;;;;;6.57;2.20;;;30.70;71.90;;;;;;7387134;19;20138;-76
2023/07/08 12:18:56;;;;;;;3.42;2.35;;;30.80;70.80;;;;;;7390095;19;20135;-77
2023/07/08 12:21:26;;;;;;;2.03;1.58;;;30.90;70.30;;;;;;7391139;19;20143;-76
2023/07/08 12:23:52;;;;;;;2.97;1.90;;;30.80;70.60;;;;;;7390364;19;20161;-76
2023/07/08 12:26:18;;;;;;;3.38;2.00;;;30.80;70.20;;;;;;7388730;19;20146;-77
2023/07/08 12:28:44;;;;;;;2.10;1.73;;;30.90;70.20;;;;;;7390466;19;20590;-76
2023/07/08 12:31:16;;;;;;;4.32;2.10;;;31.00;70.00;;;;;;7390140;19;20234;-76
2023/07/08 12:33:43;;;;;;;3.05;2.05;;;31.00;70.50;;;;;;7390375;19;20142;-77
2023/07/08 12:36:11;;;;;;;3.53;1.88;;;31.10;70.30;;;;;;7388063;19;20230;-76
2023/07/08 12:38:45;;;;;;;3.53;1.98;;;31.30;69.60;;;;;;7389086;19;20135;-77
2023/07/08 12:41:32;;;;;;;5.20;3.30;;;31.30;69.60;;;;;;7390986;19;20150;-76
2023/07/08 12:43:59;;;;;;;2.15;1.42;;;31.50;68.90;;;;;;7390718;19;20139;-76
2023/07/08 12:46:25;;;;;;;3.22;1.80;;;31.40;68.30;;;;;;7388760;19;20159;-76
2023/07/08 12:48:51;;;;;;;2.30;1.63;;;31.40;68.50;;;;;;7391450;19;20149;-75
2023/07/08 12:51:26;;;;;;;3.83;1.50;;;31.20;68.40;;;;;;7389203;19;20142;-76
2023/07/08 12:53:53;;;;;;;3.05;1.58;;;31.10;68.90;;;;;;7389490;19;20220;-76
2023/07/08 12:56:21;;;;;;;2.40;1.70;;;31.10;68.80;;;;;;7386967;19;20156;-76
2023/07/08 12:58:50;;;;;;;2.40;1.80;;;31.10;68.40;;;;;;7389784;19;20150;-76
2023/07/08 13:01:20;;;;;;;2.78;2.25;;;31.20;68.30;;;;;;7389952;19;20492;-76